Hakuyuumaru — JD3219 — position and weather

sailwx.info

Track history (hours):
 
Tides and Currents Weather Stations Pressure Air Temp Water Temp Dewpoint Dewpoint Depression Visibility Wind Speed Wind Dir Waves Ship Positions

Hakuyuumaru

Last reported at 2014-Aug-07 09:32 UTC. Time now 2014-Oct-30 17:33 UTC.
Position N 35°04' E 140°16'.
Warning: this ship's position is months out of date.

Length 71 m; draft 4.5 m.

Type: Cargo ship. MMSI: 431002761.

Date/timePositionNaut miles runAvg speedWind from/ knotsBaromVisibWave heightAir tempDewpointWater temp
2014-Aug-07 09:32N 35°04' E 140°16'1813.0
2014-Aug-07 08:11N 34°54' E 139°58'14 8.3
2014-Aug-07 06:33N 35°02' E 139°44'9 9.4
2014-Aug-07 05:33N 35°11' E 139°46'9 9.3
2014-Aug-07 04:33N 35°20' E 139°43'9 9.1
2014-Aug-07 03:33N 35°28' E 139°40'0 0.1
2014-Aug-07 02:32N 35°29' E 139°40'0 0.0
2014-Aug-07 01:32N 35°29' E 139°40'0 0.0
2014-Aug-07 00:32N 35°29' E 139°40'0 0.0
2014-Aug-06 23:32N 35°29' E 139°40'3 3.3
2014-Aug-06 22:34N 35°26' E 139°42'0 0.3
2014-Aug-06 21:33N 35°26' E 139°42'0 0.0
2014-Aug-06 20:33N 35°26' E 139°42'0 0.0
2014-Aug-06 19:33N 35°26' E 139°42'0 0.0
2014-Aug-06 18:33N 35°26' E 139°42'0 0.0
2014-Aug-06 17:33N 35°26' E 139°42'0 0.1
2014-Aug-06 16:34N 35°26' E 139°42'0 0.1
2014-Aug-06 15:33N 35°26' E 139°42'0 0.0
2014-Aug-06 14:33N 35°26' E 139°42'0 0.0
2014-Aug-06 13:33N 35°26' E 139°42'2 2.3
2014-Aug-06 12:33N 35°24' E 139°43'1110.8
2014-Aug-06 11:33N 35°13' E 139°47'1010.3
2014-Aug-06 10:33N 35°04' E 139°41'1211.5
2014-Aug-06 09:31N 34°56' E 139°30'  
2014-Jul-28 13:33N 34°03' E 132°38'  
Track history (hours):
 
Tides and Currents Weather Stations Pressure Air Temp Water Temp Dewpoint Dewpoint Depression Visibility Wind Speed Wind Dir Waves Ship Positions

Hakuyuumaru

Last reported at 2014-Aug-07 09:32 UTC. Time now 2014-Oct-30 17:33 UTC.
Position N 35°04' E 140°16'.
Warning: this ship's position is months out of date.

Length 71 m; draft 4.5 m.

Type: Cargo ship. MMSI: 431002761.

Date/timePositionNaut miles runAvg speedWind from/ knotsBaromVisibWave heightAir tempDewpointWater temp
2014-Aug-07 09:32N 35°04' E 140°16'1813.0
2014-Aug-07 08:11N 34°54' E 139°58'14 8.3
2014-Aug-07 06:33N 35°02' E 139°44'9 9.4
2014-Aug-07 05:33N 35°11' E 139°46'9 9.3
2014-Aug-07 04:33N 35°20' E 139°43'9 9.1
2014-Aug-07 03:33N 35°28' E 139°40'0 0.1
2014-Aug-07 02:32N 35°29' E 139°40'0 0.0
2014-Aug-07 01:32N 35°29' E 139°40'0 0.0
2014-Aug-07 00:32N 35°29' E 139°40'0 0.0
2014-Aug-06 23:32N 35°29' E 139°40'3 3.3
2014-Aug-06 22:34N 35°26' E 139°42'0 0.3
2014-Aug-06 21:33N 35°26' E 139°42'0 0.0
2014-Aug-06 20:33N 35°26' E 139°42'0 0.0
2014-Aug-06 19:33N 35°26' E 139°42'0 0.0
2014-Aug-06 18:33N 35°26' E 139°42'0 0.0
2014-Aug-06 17:33N 35°26' E 139°42'0 0.1
2014-Aug-06 16:34N 35°26' E 139°42'0 0.1
2014-Aug-06 15:33N 35°26' E 139°42'0 0.0
2014-Aug-06 14:33N 35°26' E 139°42'0 0.0
2014-Aug-06 13:33N 35°26' E 139°42'2 2.3
2014-Aug-06 12:33N 35°24' E 139°43'1110.8
2014-Aug-06 11:33N 35°13' E 139°47'1010.3
2014-Aug-06 10:33N 35°04' E 139°41'1211.5
2014-Aug-06 09:31N 34°56' E 139°30'  
2014-Jul-28 13:33N 34°03' E 132°38'  

Dump ship's entire track history